createdAt,value
2019-02-05T00:00:32.348Z,12.60
2019-02-05T00:03:13.842Z,14.17
2019-02-05T00:05:53.617Z,14.23
2019-02-05T00:08:32.821Z,11.40
2019-02-05T00:11:12.226Z,12.30
2019-02-05T00:13:51.285Z,13.97
2019-02-05T00:16:30.586Z,11.57
2019-02-05T00:19:10.161Z,13.47
2019-02-05T00:21:49.549Z,12.37
2019-02-05T00:24:31.118Z,12.83
2019-02-05T00:27:12.208Z,14.10
2019-02-05T00:29:51.387Z,15.87
2019-02-05T00:32:30.649Z,12.47
2019-02-05T00:35:11.835Z,11.27
2019-02-05T00:37:51.187Z,14.83
2019-02-05T00:40:31.493Z,13.20
2019-02-05T00:43:10.960Z,10.67
2019-02-05T00:45:52.606Z,15.50
2019-02-05T00:48:31.979Z,12.63
2019-02-05T00:51:11.500Z,12.00
2019-02-05T00:53:50.778Z,13.70
2019-02-05T00:56:31.238Z,12.17
2019-02-05T00:59:11.683Z,13.33
2019-02-05T01:01:50.892Z,11.00
2019-02-05T01:04:30.041Z,11.57
2019-02-05T01:07:09.154Z,11.50
2019-02-05T01:09:48.314Z,12.23
2019-02-05T01:12:27.541Z,15.07
2019-02-05T01:15:08.706Z,12.50
2019-02-05T01:17:47.878Z,10.70
2019-02-05T01:20:29.178Z,15.13
2019-02-05T01:23:08.434Z,13.00
2019-02-05T01:25:47.767Z,13.90
2019-02-05T01:28:27.135Z,16.93
2019-02-05T01:31:06.325Z,14.50
2019-02-05T01:33:45.591Z,12.07
2019-02-05T01:36:24.750Z,14.40
2019-02-05T01:39:05.511Z,11.27
2019-02-05T01:41:45.393Z,11.37
2019-02-05T01:44:24.783Z,13.80
2019-02-05T01:47:05.376Z,12.07
2019-02-05T01:49:45.581Z,13.17
2019-02-05T01:52:25.069Z,13.23
2019-02-05T01:55:04.799Z,13.17
2019-02-05T01:57:45.545Z,15.00
2019-02-05T02:00:34.918Z,15.30
2019-02-05T02:03:14.153Z,14.90
2019-02-05T02:05:55.537Z,14.57
2019-02-05T02:08:48.693Z,15.33
2019-02-05T02:11:28.957Z,20.07
2019-02-05T02:14:08.512Z,16.17
2019-02-05T02:16:47.859Z,15.00
2019-02-05T02:19:32.286Z,15.93
2019-02-05T02:22:11.539Z,17.60
2019-02-05T02:24:50.731Z,16.80
2019-02-05T02:27:30.032Z,16.07
2019-02-05T02:30:21.301Z,14.33
2019-02-05T02:33:00.603Z,17.97
2019-02-05T02:35:39.912Z,14.97
2019-02-05T02:38:19.172Z,20.87
2019-02-05T02:40:58.342Z,16.60
2019-02-05T02:43:37.695Z,14.23
2019-02-05T02:46:16.913Z,24.13
2019-02-05T02:48:56.252Z,15.60
2019-02-05T02:51:35.476Z,18.20
2019-02-05T02:54:14.629Z,18.30
2019-02-05T02:57:04.501Z,18.23
2019-02-05T02:59:34.711Z,14.80
2019-02-05T03:02:14.510Z,16.87
2019-02-05T03:04:53.825Z,15.43
2019-02-05T03:07:32.905Z,16.17
2019-02-05T03:10:20.174Z,13.83
2019-02-05T03:13:00.218Z,16.80
2019-02-05T03:15:39.541Z,14.47
2019-02-05T03:18:32.899Z,17.37
2019-02-05T03:21:12.235Z,13.13
2019-02-05T03:23:51.418Z,12.67
2019-02-05T03:26:32.392Z,13.90
2019-02-05T03:29:11.703Z,15.60
2019-02-05T03:31:51.091Z,14.40
2019-02-05T03:34:40.930Z,15.93
2019-02-05T03:37:22.760Z,15.37
2019-02-05T03:40:11.587Z,16.77
2019-02-05T03:42:50.991Z,18.13
2019-02-05T03:45:32.901Z,16.27
2019-02-05T03:48:14.331Z,18.27
2019-02-05T03:51:27.429Z,16.27
2019-02-05T03:55:02.885Z,14.50
2019-02-05T03:58:22.508Z,15.80
2019-02-05T04:01:45.111Z,18.20
2019-02-05T04:05:32.417Z,18.60
2019-02-05T04:08:40.035Z,17.57
2019-02-05T04:11:48.045Z,18.07
2019-02-05T04:15:07.983Z,16.30
2019-02-05T04:18:45.397Z,18.27
2019-02-05T04:21:54.776Z,17.20
2019-02-05T04:24:59.716Z,13.03
2019-02-05T04:28:15.897Z,15.10
2019-02-05T04:31:52.162Z,16.27
2019-02-05T04:35:27.051Z,13.77
2019-02-05T04:38:56.951Z,15.23
2019-02-05T04:42:54.621Z,15.50
2019-02-05T04:46:24.228Z,17.17
2019-02-05T04:49:50.405Z,15.37
2019-02-05T04:53:16.231Z,17.57
2019-02-05T04:56:41.193Z,17.80
2019-02-05T05:00:06.080Z,16.60
2019-02-05T05:03:25.281Z,17.80
2019-02-05T05:06:49.189Z,15.67
2019-02-05T05:09:50.893Z,18.53
2019-02-05T05:12:30.928Z,10.90
2019-02-05T05:15:13.705Z,15.17
2019-02-05T05:17:52.815Z,15.30
2019-02-05T05:20:32.640Z,15.83
2019-02-05T05:23:11.928Z,13.17
2019-02-05T05:25:51.287Z,14.80
2019-02-05T05:28:30.465Z,11.70
2019-02-05T05:31:10.911Z,11.90
2019-02-05T05:33:50.626Z,10.47
2019-02-05T05:36:29.888Z,11.87
2019-02-05T05:39:10.347Z,10.10
2019-02-05T05:41:49.535Z,8.70
2019-02-05T05:44:28.645Z,12.33
2019-02-05T05:47:11.873Z,9.70
2019-02-05T05:49:51.077Z,8.93
2019-02-05T05:52:30.297Z,10.83
2019-02-05T05:55:09.645Z,7.57
2019-02-05T05:57:50.908Z,10.23
2019-02-05T06:00:30.094Z,9.70
2019-02-05T06:03:10.378Z,9.17
2019-02-05T06:05:50.057Z,10.73
2019-02-05T06:08:29.338Z,8.93
2019-02-05T06:11:08.558Z,9.03
2019-02-05T06:13:48.360Z,10.40
2019-02-05T06:16:27.572Z,6.50
2019-02-05T06:19:09.058Z,10.00
2019-02-05T06:21:48.224Z,8.70
2019-02-05T06:24:27.423Z,9.53
2019-02-05T06:27:06.704Z,8.30
2019-02-05T06:29:45.906Z,7.70
2019-02-05T06:32:27.197Z,9.57
2019-02-05T06:35:07.474Z,10.47
2019-02-05T06:37:46.767Z,8.67
2019-02-05T06:40:26.188Z,7.80
2019-02-05T06:43:05.827Z,9.90
2019-02-05T06:45:45.081Z,10.20
2019-02-05T06:48:24.877Z,8.20
2019-02-05T06:51:04.156Z,9.80
2019-02-05T06:53:43.477Z,8.63
2019-02-05T06:56:24.290Z,10.03
2019-02-05T06:59:03.514Z,11.67
2019-02-05T07:01:42.755Z,8.43
2019-02-05T07:04:22.270Z,10.43
2019-02-05T07:07:01.831Z,8.47
2019-02-05T07:09:41.106Z,10.70
2019-02-05T07:12:20.492Z,10.77
2019-02-05T07:15:00.377Z,10.67
2019-02-05T07:17:49.251Z,10.90
2019-02-05T07:20:20.669Z,14.20
2019-02-05T07:22:59.982Z,12.27
2019-02-05T07:25:39.166Z,9.40
2019-02-05T07:28:18.234Z,10.20
2019-02-05T07:30:57.433Z,10.57
2019-02-05T07:33:36.590Z,12.87
2019-02-05T07:36:15.958Z,12.27
2019-02-05T07:38:55.102Z,12.27
2019-02-05T07:41:34.389Z,11.27
2019-02-05T07:44:13.559Z,11.37
2019-02-05T07:46:54.903Z,13.23
2019-02-05T07:49:35.140Z,11.03
2019-02-05T07:52:14.472Z,11.13
2019-02-05T07:54:53.713Z,8.13
2019-02-05T07:57:32.893Z,11.47
2019-02-05T08:00:19.545Z,10.57
2019-02-05T08:02:58.797Z,15.47
2019-02-05T08:05:37.951Z,10.30
2019-02-05T08:08:17.239Z,11.23
2019-02-05T08:10:57.998Z,13.40
2019-02-05T08:13:37.285Z,13.87
2019-02-05T08:16:16.649Z,11.43
2019-02-05T08:18:56.356Z,12.57
2019-02-05T08:21:37.619Z,12.60
2019-02-05T08:24:16.884Z,10.18
2019-02-05T08:26:56.688Z,12.45
2019-02-05T08:29:36.422Z,15.28
2019-02-05T08:32:16.044Z,11.60
2019-02-05T08:34:55.314Z,13.83
2019-02-05T08:37:34.386Z,16.00
2019-02-05T08:40:18.989Z,14.78
2019-02-05T08:42:58.258Z,16.82
2019-02-05T08:45:38.541Z,15.10
2019-02-05T08:48:18.417Z,16.82
2019-02-05T08:50:58.316Z,15.45
2019-02-05T08:53:37.665Z,14.63
2019-02-05T08:56:16.814Z,18.60
2019-02-05T08:58:56.472Z,18.15
2019-02-05T09:01:36.321Z,19.17
2019-02-05T09:04:15.390Z,18.98
2019-02-05T09:06:55.151Z,18.52
2019-02-05T09:09:34.979Z,19.73
2019-02-05T09:12:17.951Z,20.52
2019-02-05T09:14:56.604Z,19.42
2019-02-05T09:17:36.377Z,20.77
2019-02-05T09:20:17.924Z,20.12
2019-02-05T09:22:57.779Z,17.73
2019-02-05T09:25:37.681Z,20.35
2019-02-05T09:28:17.608Z,24.40
2019-02-05T09:30:57.256Z,19.50
2019-02-05T09:33:36.961Z,21.65
2019-02-05T09:36:16.671Z,19.30
2019-02-05T09:38:56.459Z,21.12
2019-02-05T09:41:36.612Z,21.37
2019-02-05T09:44:16.437Z,20.97
2019-02-05T09:46:56.606Z,30.52
2019-02-05T09:49:38.033Z,19.48
2019-02-05T09:52:19.232Z,23.07
2019-02-05T09:54:59.677Z,21.30
2019-02-05T09:57:39.458Z,21.17
2019-02-05T10:00:22.999Z,19.67
2019-02-05T10:03:02.898Z,17.32
2019-02-05T10:05:42.857Z,18.82
2019-02-05T10:08:22.697Z,21.93
2019-02-05T10:11:02.569Z,19.10
2019-02-05T10:13:42.296Z,19.10
2019-02-05T10:16:22.231Z,23.18
2019-02-05T10:19:02.078Z,21.50
2019-02-05T10:21:42.452Z,18.82
2019-02-05T10:24:22.232Z,20.08
2019-02-05T10:27:02.107Z,25.23
2019-02-05T10:29:41.896Z,19.70
2019-02-05T10:32:21.706Z,19.62
2019-02-05T10:35:01.524Z,18.65
2019-02-05T10:37:41.400Z,22.17
2019-02-05T10:40:22.374Z,19.20
2019-02-05T10:43:03.387Z,18.92
2019-02-05T10:45:43.199Z,19.98
2019-02-05T10:48:23.156Z,22.13
2019-02-05T10:51:02.949Z,20.12
2019-02-05T10:53:42.854Z,20.68
2019-02-05T10:56:23.061Z,18.37
2019-02-05T10:59:02.943Z,19.48
2019-02-05T11:01:42.801Z,19.67
2019-02-05T11:04:22.809Z,21.45
2019-02-05T11:07:06.496Z,25.95
2019-02-05T11:09:46.501Z,24.12
2019-02-05T11:12:26.468Z,24.15
2019-02-05T11:15:10.001Z,21.52
2019-02-05T11:17:49.926Z,17.57
2019-02-05T11:20:29.896Z,30.35
2019-02-05T11:23:09.973Z,19.30
2019-02-05T11:25:49.859Z,21.15
2019-02-05T11:28:29.724Z,25.43
2019-02-05T11:31:09.440Z,19.27
2019-02-05T11:33:49.236Z,15.90
2019-02-05T11:36:30.828Z,17.27
2019-02-05T11:39:16.520Z,17.98
2019-02-05T11:41:56.564Z,18.32
2019-02-05T11:44:36.249Z,13.50
2019-02-05T11:47:16.627Z,17.80
2019-02-05T11:49:56.379Z,15.65
2019-02-05T11:52:36.187Z,23.67
2019-02-05T11:55:18.469Z,43.17
2019-02-05T11:57:58.295Z,20.80
2019-02-05T12:00:47.075Z,14.28
2019-02-05T12:03:27.226Z,14.83
2019-02-05T12:06:08.181Z,13.58
2019-02-05T12:08:47.908Z,12.98
2019-02-05T12:11:27.651Z,13.93
2019-02-05T12:14:07.643Z,16.25
2019-02-05T12:16:48.678Z,16.57
2019-02-05T12:19:28.426Z,14.70
2019-02-05T12:22:08.110Z,16.97
2019-02-05T12:24:47.934Z,18.55
2019-02-05T12:27:28.066Z,18.17
2019-02-05T12:30:17.510Z,17.90
2019-02-05T12:32:57.601Z,19.73
2019-02-05T12:35:37.446Z,15.43
2019-02-05T12:38:20.995Z,15.63
2019-02-05T12:41:00.848Z,20.85
2019-02-05T12:43:40.981Z,15.03
2019-02-05T12:46:21.413Z,19.95
2019-02-05T12:49:01.218Z,19.32
2019-02-05T12:51:41.004Z,17.90
2019-02-05T12:54:21.324Z,16.77
2019-02-05T12:57:01.394Z,18.07
2019-02-05T12:59:41.251Z,18.73
2019-02-05T13:02:21.036Z,17.92
2019-02-05T13:05:00.771Z,16.40
2019-02-05T13:07:41.703Z,22.35
2019-02-05T13:10:24.851Z,18.95
2019-02-05T13:13:05.817Z,16.87
2019-02-05T13:15:45.587Z,17.20
2019-02-05T13:18:25.469Z,18.40
2019-02-05T13:21:06.280Z,21.05
2019-02-05T13:23:46.164Z,18.07
2019-02-05T13:26:28.223Z,21.10
2019-02-05T13:29:12.550Z,20.40
2019-02-05T13:31:52.270Z,23.00
2019-02-05T13:34:32.249Z,18.17
2019-02-05T13:37:12.115Z,18.25
2019-02-05T13:39:52.494Z,22.22
2019-02-05T13:42:32.295Z,18.55
2019-02-05T13:45:13.097Z,18.52
2019-02-05T13:47:52.906Z,19.50
2019-02-05T13:50:33.981Z,20.90
2019-02-05T13:53:13.927Z,17.95
2019-02-05T13:55:53.820Z,20.20
2019-02-05T13:58:33.480Z,20.88
2019-02-05T14:01:20.115Z,19.27
2019-02-05T14:03:54.993Z,21.90
2019-02-05T14:06:34.756Z,21.40
2019-02-05T14:09:14.920Z,21.70
2019-02-05T14:11:54.680Z,21.68
2019-02-05T14:14:34.506Z,21.95
2019-02-05T14:17:14.256Z,20.32
2019-02-05T14:19:54.132Z,18.30
2019-02-05T14:22:33.901Z,20.25
2019-02-05T14:25:14.369Z,19.45
2019-02-05T14:27:54.236Z,22.25
2019-02-05T14:30:40.822Z,20.97
2019-02-05T14:33:20.664Z,18.17
2019-02-05T14:36:00.954Z,22.30
2019-02-05T14:38:40.856Z,26.42
2019-02-05T14:41:21.186Z,24.15
2019-02-05T14:44:00.964Z,21.15
2019-02-05T14:46:41.670Z,21.07
2019-02-05T14:49:23.273Z,18.40
2019-02-05T14:52:03.177Z,18.62
2019-02-05T14:54:42.984Z,18.30
2019-02-05T14:57:23.664Z,18.25
2019-02-05T15:00:03.646Z,18.48
2019-02-05T15:02:44.762Z,21.10
2019-02-05T15:05:26.983Z,20.50
2019-02-05T15:08:10.189Z,22.70
2019-02-05T15:10:50.134Z,18.50
2019-02-05T15:13:29.909Z,18.27
2019-02-05T15:16:10.750Z,19.85
2019-02-05T15:18:50.556Z,18.45
2019-02-05T15:21:30.516Z,17.67
2019-02-05T15:24:10.448Z,27.10
2019-02-05T15:26:50.518Z,18.05
2019-02-05T15:29:30.612Z,18.37
2019-02-05T15:32:13.960Z,19.45
2019-02-05T15:34:55.982Z,18.45
2019-02-05T15:37:38.169Z,19.60
2019-02-05T15:40:18.897Z,18.52
2019-02-05T15:42:59.197Z,22.37
2019-02-05T15:45:38.947Z,16.05
2019-02-05T15:48:19.030Z,19.80
2019-02-05T15:50:58.819Z,18.67
2019-02-05T15:53:39.029Z,22.58
2019-02-05T15:56:19.600Z,17.52
2019-02-05T15:58:59.344Z,21.73
2019-02-05T16:01:39.643Z,21.15
2019-02-05T16:04:22.563Z,21.25
2019-02-05T16:07:02.291Z,21.52
2019-02-05T16:10:02.714Z,28.17
2019-02-05T16:12:42.547Z,22.07
2019-02-05T16:15:22.446Z,21.90
2019-02-05T16:18:02.252Z,23.22
2019-02-05T16:20:42.201Z,24.50
2019-02-05T16:23:22.090Z,29.52
2019-02-05T16:26:02.145Z,26.42
2019-02-05T16:28:41.882Z,22.48
2019-02-05T16:31:22.048Z,23.38
2019-02-05T16:34:01.879Z,21.68
2019-02-05T16:36:41.640Z,22.17
2019-02-05T16:39:21.440Z,25.20
2019-02-05T16:42:01.260Z,22.85
2019-02-05T16:44:43.386Z,29.10
2019-02-05T16:47:27.166Z,33.28
2019-02-05T16:50:12.707Z,29.65
2019-02-05T16:52:52.875Z,28.17
2019-02-05T16:55:32.828Z,25.70
2019-02-05T16:58:12.789Z,27.80
2019-02-05T17:00:52.509Z,29.27
2019-02-05T17:03:32.242Z,27.95
2019-02-05T17:06:12.102Z,24.80
2019-02-05T17:08:51.895Z,24.07
2019-02-05T17:11:31.685Z,22.85
2019-02-05T17:14:11.508Z,23.75
2019-02-05T17:16:51.263Z,25.15
2019-02-05T17:19:31.879Z,24.82
2019-02-05T17:22:12.126Z,28.55
2019-02-05T17:24:54.630Z,27.37
2019-02-05T17:27:35.337Z,26.33
2019-02-05T17:30:20.160Z,24.05
2019-02-05T17:33:01.874Z,25.57
2019-02-05T17:35:42.319Z,27.67
2019-02-05T17:38:22.233Z,27.37
2019-02-05T17:41:03.367Z,26.10
2019-02-05T17:43:44.344Z,28.47
2019-02-05T17:46:24.379Z,28.77
2019-02-05T17:49:04.319Z,28.02
2019-02-05T17:51:44.235Z,26.35
2019-02-05T17:54:23.466Z,23.55
2019-02-05T17:57:03.419Z,27.40
2019-02-05T17:59:43.110Z,25.82
2019-02-05T18:02:24.057Z,26.52
2019-02-05T18:05:05.625Z,24.67
2019-02-05T18:07:45.637Z,24.92
2019-02-05T18:10:26.972Z,30.57
2019-02-05T18:13:07.145Z,27.40
2019-02-05T18:15:46.977Z,28.55
2019-02-05T18:18:27.547Z,36.42
2019-02-05T18:21:10.125Z,33.60
2019-02-05T18:23:50.088Z,30.08
2019-02-05T18:26:31.631Z,31.65
2019-02-05T18:29:12.098Z,31.70
2019-02-05T18:31:52.053Z,30.77
2019-02-05T18:34:32.485Z,36.33
2019-02-05T18:37:12.417Z,30.57
2019-02-05T18:39:52.185Z,31.87
2019-02-05T18:42:32.723Z,36.20
2019-02-05T18:45:15.304Z,37.25
2019-02-05T18:47:55.336Z,31.70
2019-02-05T18:50:37.809Z,38.65
2019-02-05T18:53:17.646Z,31.62
2019-02-05T18:55:57.740Z,32.55
2019-02-05T18:58:38.579Z,30.72
2019-02-05T19:01:18.681Z,31.52
2019-02-05T19:03:58.540Z,28.25
2019-02-05T19:06:40.281Z,28.70
2019-02-05T19:09:20.269Z,27.90
2019-02-05T19:12:04.171Z,26.37
2019-02-05T19:14:42.805Z,30.40
2019-02-05T19:17:23.196Z,29.77
2019-02-05T19:20:03.392Z,29.18
2019-02-05T19:22:44.184Z,29.55
2019-02-05T19:25:53.737Z,34.85
2019-02-05T19:28:36.818Z,32.65
2019-02-05T19:31:38.942Z,29.52
2019-02-05T19:34:19.628Z,28.77
2019-02-05T19:36:59.866Z,29.32
2019-02-05T19:39:40.107Z,30.37
2019-02-05T19:42:20.570Z,30.37
2019-02-05T19:45:28.662Z,29.05
2019-02-05T19:48:13.358Z,28.10
2019-02-05T19:50:52.843Z,29.87
2019-02-05T19:53:32.808Z,30.65
2019-02-05T19:56:14.945Z,29.90
2019-02-05T19:58:55.290Z,30.60
2019-02-05T20:01:36.038Z,32.98
2019-02-05T20:04:16.088Z,33.15
2019-02-05T20:06:56.269Z,32.98
2019-02-05T20:09:36.503Z,29.45
2019-02-05T20:12:16.231Z,36.50
2019-02-05T20:14:59.311Z,30.43
2019-02-05T20:17:39.182Z,33.53
2019-02-05T20:20:19.311Z,32.15
2019-02-05T20:23:02.600Z,31.97
2019-02-05T20:25:43.008Z,31.42
2019-02-05T20:28:24.947Z,34.63
2019-02-05T20:31:05.901Z,34.38
2019-02-05T20:33:49.951Z,36.23
2019-02-05T20:36:29.117Z,30.68
2019-02-05T20:39:17.238Z,32.93
2019-02-05T20:41:57.468Z,37.05
2019-02-05T20:44:37.480Z,41.10
2019-02-05T20:47:18.903Z,41.75
2019-02-05T20:49:59.236Z,36.28
2019-02-05T20:52:39.695Z,38.05
2019-02-05T20:55:20.883Z,33.85
2019-02-05T20:58:00.899Z,38.92
2019-02-05T21:00:42.005Z,36.77
2019-02-05T21:03:22.160Z,39.40
2019-02-05T21:06:01.821Z,40.40
2019-02-05T21:08:41.853Z,37.23
2019-02-05T21:11:21.766Z,35.75
2019-02-05T21:14:01.659Z,33.60
2019-02-05T21:16:41.834Z,29.55
2019-02-05T21:19:22.396Z,34.10
2019-02-05T21:22:02.642Z,34.40
2019-02-05T21:24:42.671Z,36.08
2019-02-05T21:27:22.503Z,34.88
2019-02-05T21:30:02.402Z,33.60
2019-02-05T21:32:42.338Z,31.93
2019-02-05T21:35:26.088Z,34.45
2019-02-05T21:38:07.421Z,34.50
2019-02-05T21:40:47.352Z,35.08
2019-02-05T21:43:30.117Z,36.17
2019-02-05T21:46:10.159Z,34.25
2019-02-05T21:48:50.225Z,33.42
2019-02-05T21:51:40.587Z,32.70
2019-02-05T21:54:13.066Z,41.00
2019-02-05T21:56:56.109Z,39.85
2019-02-05T21:59:35.356Z,37.75
2019-02-05T22:02:15.397Z,38.53
2019-02-05T22:04:54.744Z,36.73
2019-02-05T22:07:34.684Z,34.50
2019-02-05T22:10:14.955Z,37.35
2019-02-05T22:12:58.624Z,33.75
2019-02-05T22:15:38.815Z,35.28
2019-02-05T22:18:19.585Z,37.65
2019-02-05T22:20:59.400Z,33.63
2019-02-05T22:23:39.218Z,38.58
2019-02-05T22:26:19.705Z,36.40
2019-02-05T22:28:59.404Z,36.60
2019-02-05T22:31:39.210Z,34.45
2019-02-05T22:34:19.383Z,39.95
2019-02-05T22:36:59.091Z,37.33
2019-02-05T22:39:40.749Z,40.65
2019-02-05T22:42:22.229Z,35.60
2019-02-05T22:45:02.313Z,40.03
2019-02-05T22:47:42.555Z,36.03
2019-02-05T22:50:28.716Z,36.03
2019-02-05T22:53:08.688Z,35.10
2019-02-05T22:55:48.456Z,37.25
2019-02-05T22:58:28.376Z,36.73
2019-02-05T23:01:38.380Z,36.35
2019-02-05T23:05:08.815Z,38.92
2019-02-05T23:07:48.503Z,38.25
2019-02-05T23:11:26.653Z,33.53
2019-02-05T23:14:07.070Z,35.50
2019-02-05T23:16:47.459Z,38.33
2019-02-05T23:19:27.297Z,43.80
2019-02-05T23:22:07.696Z,42.30
2019-02-05T23:24:47.453Z,40.63
2019-02-05T23:27:28.176Z,40.40
2019-02-05T23:30:15.980Z,43.10
2019-02-05T23:32:55.369Z,45.35
2019-02-05T23:35:35.109Z,40.95
2019-02-05T23:38:14.310Z,45.20
2019-02-05T23:40:55.184Z,45.20
2019-02-05T23:43:34.319Z,45.85
2019-02-05T23:46:15.289Z,39.42
2019-02-05T23:48:55.115Z,46.25
2019-02-05T23:51:34.467Z,42.48
2019-02-05T23:54:13.612Z,40.78
2019-02-05T23:56:52.922Z,43.95
2019-02-05T23:59:32.651Z,45.43
